createdAt,value
2018-04-14T00:00:41.992Z,935.51
2018-04-14T00:01:42.139Z,935.57
2018-04-14T00:02:41.874Z,935.51
2018-04-14T00:03:41.839Z,935.49
2018-04-14T00:04:41.809Z,935.54
2018-04-14T00:05:41.759Z,935.49
2018-04-14T00:06:41.744Z,935.56
2018-04-14T00:07:41.868Z,935.55
2018-04-14T00:08:41.639Z,935.56
2018-04-14T00:09:41.591Z,935.57
2018-04-14T00:10:41.567Z,935.55
2018-04-14T00:11:41.503Z,935.55
2018-04-14T00:12:41.649Z,935.53
2018-04-14T00:13:41.425Z,935.54
2018-04-14T00:14:41.381Z,935.55
2018-04-14T00:15:41.359Z,935.55
2018-04-14T00:16:41.324Z,935.56
2018-04-14T00:17:41.232Z,935.57
2018-04-14T00:18:41.406Z,935.55
2018-04-14T00:19:41.158Z,935.54
2018-04-14T00:20:41.100Z,935.52
2018-04-14T00:21:41.049Z,935.58
2018-04-14T00:22:41.008Z,935.57
2018-04-14T00:23:40.982Z,935.57
2018-04-14T00:24:41.135Z,935.65
2018-04-14T00:25:40.878Z,935.60
2018-04-14T00:26:40.894Z,935.60
2018-04-14T00:27:40.809Z,935.63
2018-04-14T00:28:40.761Z,935.65
2018-04-14T00:29:40.728Z,935.63
2018-04-14T00:30:40.857Z,935.66
2018-04-14T00:31:40.638Z,935.68
2018-04-14T00:32:40.584Z,935.67
2018-04-14T00:33:40.534Z,935.68
2018-04-14T00:34:40.483Z,935.67
2018-04-14T00:35:40.454Z,935.69
2018-04-14T00:36:40.619Z,935.65
2018-04-14T00:37:40.367Z,935.63
2018-04-14T00:38:40.327Z,935.65
2018-04-14T00:39:40.312Z,935.65
2018-04-14T00:40:40.250Z,935.66
2018-04-14T00:41:40.203Z,935.66
2018-04-14T00:42:40.357Z,935.65
2018-04-14T00:43:40.088Z,935.65
2018-04-14T00:44:40.063Z,935.64
2018-04-14T00:45:40.029Z,935.67
2018-04-14T00:46:39.969Z,935.70
2018-04-14T00:47:39.923Z,935.69
2018-04-14T00:48:40.073Z,935.67
2018-04-14T00:49:39.825Z,935.69
2018-04-14T00:50:39.799Z,935.73
2018-04-14T00:51:39.778Z,935.72
2018-04-14T00:52:39.705Z,935.73
2018-04-14T00:53:39.690Z,935.70
2018-04-14T00:54:39.852Z,935.74
2018-04-14T00:55:39.575Z,935.74
2018-04-14T00:56:39.539Z,935.73
2018-04-14T00:57:39.516Z,935.74
2018-04-14T00:58:39.451Z,935.75
2018-04-14T00:59:39.416Z,935.82
2018-04-14T01:00:39.607Z,935.80
2018-04-14T01:01:39.334Z,935.83
2018-04-14T01:02:39.261Z,935.75
2018-04-14T01:03:39.243Z,935.73
2018-04-14T01:04:39.216Z,935.75
2018-04-14T01:05:39.153Z,935.68
2018-04-14T01:06:39.311Z,935.67
2018-04-14T01:07:39.101Z,935.68
2018-04-14T01:08:39.006Z,935.71
2018-04-14T01:09:38.973Z,935.70
2018-04-14T01:10:38.936Z,935.63
2018-04-14T01:11:38.886Z,935.71
2018-04-14T01:12:39.089Z,935.68
2018-04-14T01:13:38.781Z,935.73
2018-04-14T01:14:38.748Z,935.63
2018-04-14T01:15:38.718Z,935.70
2018-04-14T01:16:38.675Z,935.70
2018-04-14T01:17:38.835Z,935.73
2018-04-14T01:18:38.582Z,935.61
2018-04-14T01:19:38.537Z,935.70
2018-04-14T01:20:38.492Z,935.68
2018-04-14T01:21:38.479Z,935.72
2018-04-14T01:22:38.472Z,935.68
2018-04-14T01:23:38.575Z,935.68
2018-04-14T01:24:38.300Z,935.69
2018-04-14T01:25:38.287Z,935.67
2018-04-14T01:26:38.211Z,935.70
2018-04-14T01:27:38.213Z,935.66
2018-04-14T01:28:38.143Z,935.69
2018-04-14T01:29:38.319Z,935.73
2018-04-14T01:30:38.044Z,935.70
2018-04-14T01:31:38.022Z,935.70
2018-04-14T01:32:37.957Z,935.74
2018-04-14T01:33:37.917Z,935.72
2018-04-14T01:34:37.906Z,935.77
2018-04-14T01:35:38.068Z,935.78
2018-04-14T01:36:37.825Z,935.74
2018-04-14T01:37:37.758Z,935.75
2018-04-14T01:38:37.716Z,935.82
2018-04-14T01:39:37.668Z,935.75
2018-04-14T01:40:37.618Z,935.75
2018-04-14T01:41:37.796Z,935.73
2018-04-14T01:42:37.525Z,935.75
2018-04-14T01:43:37.522Z,935.76
2018-04-14T01:44:37.444Z,935.78
2018-04-14T01:45:37.381Z,935.75
2018-04-14T01:46:37.357Z,935.77
2018-04-14T01:47:37.542Z,935.74
2018-04-14T01:48:37.302Z,935.75
2018-04-14T01:49:37.243Z,935.73
2018-04-14T01:50:37.192Z,935.73
2018-04-14T01:51:37.165Z,935.68
2018-04-14T01:52:37.088Z,935.71
2018-04-14T01:53:37.237Z,935.70
2018-04-14T01:54:37.020Z,935.79
2018-04-14T01:55:36.989Z,935.79
2018-04-14T01:56:36.947Z,935.77
2018-04-14T01:57:36.878Z,935.79
2018-04-14T01:58:36.847Z,935.83
2018-04-14T01:59:36.982Z,935.76
2018-04-14T02:00:36.760Z,935.75
2018-04-14T02:01:36.716Z,935.74
2018-04-14T02:02:36.649Z,935.74
2018-04-14T02:03:36.625Z,935.72
2018-04-14T02:04:36.566Z,935.71
2018-04-14T02:05:36.747Z,935.77
2018-04-14T02:06:36.483Z,935.81
2018-04-14T02:07:36.470Z,935.72
2018-04-14T02:08:36.395Z,935.72
2018-04-14T02:09:36.357Z,935.68
2018-04-14T02:10:36.288Z,935.72
2018-04-14T02:11:36.479Z,935.69
2018-04-14T02:12:36.205Z,935.68
2018-04-14T02:13:36.191Z,935.68
2018-04-14T02:14:36.139Z,935.71
2018-04-14T02:15:36.102Z,935.69
2018-04-14T02:16:36.039Z,935.70
2018-04-14T02:17:36.212Z,935.75
2018-04-14T02:18:35.958Z,935.70
2018-04-14T02:19:35.926Z,935.73
2018-04-14T02:20:35.877Z,935.70
2018-04-14T02:21:35.855Z,935.70
2018-04-14T02:22:35.800Z,935.72
2018-04-14T02:23:35.940Z,935.77
2018-04-14T02:24:35.705Z,935.81
2018-04-14T02:25:35.646Z,935.74
2018-04-14T02:26:35.612Z,935.77
2018-04-14T02:27:35.579Z,935.74
2018-04-14T02:28:35.528Z,935.77
2018-04-14T02:29:35.673Z,935.73
2018-04-14T02:30:35.419Z,935.77
2018-04-14T02:31:35.389Z,935.75
2018-04-14T02:32:35.339Z,935.76
2018-04-14T02:33:35.315Z,935.79
2018-04-14T02:34:35.270Z,935.74
2018-04-14T02:35:35.432Z,935.73
2018-04-14T02:36:35.163Z,935.77
2018-04-14T02:37:35.155Z,935.67
2018-04-14T02:38:35.117Z,935.69
2018-04-14T02:39:35.048Z,935.67
2018-04-14T02:40:34.989Z,935.68
2018-04-14T02:41:35.153Z,935.63
2018-04-14T02:42:34.914Z,935.64
2018-04-14T02:43:34.862Z,935.66
2018-04-14T02:44:34.854Z,935.66
2018-04-14T02:45:34.795Z,935.64
2018-04-14T02:46:34.721Z,935.63
2018-04-14T02:47:34.875Z,935.58
2018-04-14T02:48:34.661Z,935.60
2018-04-14T02:49:34.619Z,935.59
2018-04-14T02:50:34.592Z,935.57
2018-04-14T02:51:34.516Z,935.55
2018-04-14T02:52:34.499Z,935.62
2018-04-14T02:53:34.646Z,935.58
2018-04-14T02:54:34.401Z,935.56
2018-04-14T02:55:34.367Z,935.60
2018-04-14T02:56:34.288Z,935.58
2018-04-14T02:57:34.267Z,935.56
2018-04-14T02:58:34.222Z,935.58
2018-04-14T02:59:34.382Z,935.54
2018-04-14T03:00:34.127Z,935.57
2018-04-14T03:01:34.082Z,935.61
2018-04-14T03:02:34.059Z,935.60
2018-04-14T03:03:34.012Z,935.64
2018-04-14T03:04:33.943Z,935.58
2018-04-14T03:05:34.106Z,935.58
2018-04-14T03:06:33.862Z,935.55
2018-04-14T03:07:33.825Z,935.53
2018-04-14T03:08:33.773Z,935.53
2018-04-14T03:09:33.716Z,935.56
2018-04-14T03:10:33.709Z,935.57
2018-04-14T03:11:33.858Z,935.61
2018-04-14T03:12:33.600Z,935.58
2018-04-14T03:13:33.554Z,935.57
2018-04-14T03:14:33.504Z,935.61
2018-04-14T03:15:33.474Z,935.60
2018-04-14T03:16:33.411Z,935.63
2018-04-14T03:17:33.581Z,935.62
2018-04-14T03:18:33.338Z,935.61
2018-04-14T03:19:33.290Z,935.59
2018-04-14T03:20:33.239Z,935.58
2018-04-14T03:21:33.210Z,935.58
2018-04-14T03:22:33.162Z,935.59
2018-04-14T03:23:33.345Z,935.54
2018-04-14T03:24:33.061Z,935.57
2018-04-14T03:25:33.031Z,935.57
2018-04-14T03:26:32.973Z,935.54
2018-04-14T03:27:32.959Z,935.55
2018-04-14T03:28:32.923Z,935.54
2018-04-14T03:29:33.068Z,935.54
2018-04-14T03:30:32.825Z,935.53
2018-04-14T03:31:32.754Z,935.56
2018-04-14T03:32:32.716Z,935.56
2018-04-14T03:33:32.680Z,935.54
2018-04-14T03:34:32.648Z,935.53
2018-04-14T03:35:32.793Z,935.56
2018-04-14T03:36:32.547Z,935.52
2018-04-14T03:37:32.510Z,935.53
2018-04-14T03:38:32.474Z,935.53
2018-04-14T03:39:32.419Z,935.55
2018-04-14T03:40:32.388Z,935.55
2018-04-14T03:41:32.537Z,935.59
2018-04-14T03:42:32.296Z,935.60
2018-04-14T03:43:32.249Z,935.58
2018-04-14T03:44:32.185Z,935.59
2018-04-14T03:45:32.160Z,935.59
2018-04-14T03:46:32.120Z,935.54
2018-04-14T03:47:32.280Z,935.57
2018-04-14T03:48:32.017Z,935.53
2018-04-14T03:49:31.991Z,935.50
2018-04-14T03:50:31.953Z,935.51
2018-04-14T03:51:31.918Z,935.52
2018-04-14T03:52:31.848Z,935.52
2018-04-14T03:53:31.985Z,935.49
2018-04-14T03:54:31.769Z,935.57
2018-04-14T03:55:31.719Z,935.55
2018-04-14T03:56:31.674Z,935.50
2018-04-14T03:57:31.637Z,935.51
2018-04-14T03:58:31.606Z,935.53
2018-04-14T03:59:31.743Z,935.48
2018-04-14T04:00:31.494Z,935.49
2018-04-14T04:01:31.456Z,935.50
2018-04-14T04:02:31.411Z,935.49
2018-04-14T04:03:31.361Z,935.47
2018-04-14T04:04:31.317Z,935.49
2018-04-14T04:05:31.508Z,935.51
2018-04-14T04:06:31.248Z,935.50
2018-04-14T04:07:31.200Z,935.54
2018-04-14T04:08:31.160Z,935.52
2018-04-14T04:09:31.142Z,935.49
2018-04-14T04:10:31.047Z,935.48
2018-04-14T04:11:31.230Z,935.50
2018-04-14T04:12:30.960Z,935.48
2018-04-14T04:13:30.923Z,935.50
2018-04-14T04:14:30.909Z,935.54
2018-04-14T04:15:30.853Z,935.49
2018-04-14T04:16:30.810Z,935.54
2018-04-14T04:17:30.967Z,935.54
2018-04-14T04:18:30.696Z,935.54
2018-04-14T04:19:30.692Z,935.55
2018-04-14T04:20:30.634Z,935.49
2018-04-14T04:21:30.578Z,935.53
2018-04-14T04:22:30.547Z,935.53
2018-04-14T04:23:30.685Z,935.50
2018-04-14T04:24:30.460Z,935.52
2018-04-14T04:25:30.394Z,935.51
2018-04-14T04:26:30.353Z,935.54
2018-04-14T04:27:30.331Z,935.55
2018-04-14T04:28:30.269Z,935.57
2018-04-14T04:29:30.453Z,935.60
2018-04-14T04:30:30.197Z,935.60
2018-04-14T04:31:30.140Z,935.61
2018-04-14T04:32:30.107Z,935.63
2018-04-14T04:33:30.056Z,935.65
2018-04-14T04:34:29.996Z,935.62
2018-04-14T04:35:30.204Z,935.65
2018-04-14T04:36:29.933Z,935.62
2018-04-14T04:37:29.883Z,935.61
2018-04-14T04:38:29.819Z,935.62
2018-04-14T04:39:29.771Z,935.54
2018-04-14T04:40:29.771Z,935.58
2018-04-14T04:41:29.900Z,935.54
2018-04-14T04:42:29.664Z,935.53
2018-04-14T04:43:29.621Z,935.52
2018-04-14T04:44:29.554Z,935.50
2018-04-14T04:45:29.534Z,935.51
2018-04-14T04:46:29.508Z,935.49
2018-04-14T04:47:29.656Z,935.50
2018-04-14T04:48:29.417Z,935.50
2018-04-14T04:49:29.346Z,935.51
2018-04-14T04:50:29.332Z,935.53
2018-04-14T04:51:29.249Z,935.56
2018-04-14T04:52:29.204Z,935.54
2018-04-14T04:53:29.407Z,935.56
2018-04-14T04:54:29.142Z,935.58
2018-04-14T04:55:29.088Z,935.58
2018-04-14T04:56:29.051Z,935.56
2018-04-14T04:57:29.010Z,935.57
2018-04-14T04:58:28.973Z,935.54
2018-04-14T04:59:29.113Z,935.52
2018-04-14T05:00:28.875Z,935.53
2018-04-14T05:01:28.840Z,935.46
2018-04-14T05:02:28.777Z,935.54
2018-04-14T05:03:28.762Z,935.54
2018-04-14T05:04:28.697Z,935.52
2018-04-14T05:05:28.850Z,935.56
2018-04-14T05:06:28.615Z,935.57
2018-04-14T05:07:28.569Z,935.57
2018-04-14T05:08:28.529Z,935.52
2018-04-14T05:09:28.494Z,935.58
2018-04-14T05:10:28.423Z,935.60
2018-04-14T05:11:28.598Z,935.59
2018-04-14T05:12:28.347Z,935.54
2018-04-14T05:13:28.323Z,935.54
2018-04-14T05:14:28.261Z,935.54
2018-04-14T05:15:28.220Z,935.54
2018-04-14T05:16:28.188Z,935.50
2018-04-14T05:17:28.322Z,935.52
2018-04-14T05:18:28.089Z,935.55
2018-04-14T05:19:28.061Z,935.59
2018-04-14T05:20:27.988Z,935.60
2018-04-14T05:21:27.926Z,935.56
2018-04-14T05:22:27.888Z,935.57
2018-04-14T05:23:28.064Z,935.54
2018-04-14T05:24:27.828Z,935.55
2018-04-14T05:25:27.765Z,935.57
2018-04-14T05:26:27.732Z,935.58
2018-04-14T05:27:27.682Z,935.58
2018-04-14T05:28:27.644Z,935.62
2018-04-14T05:29:27.821Z,935.61
2018-04-14T05:30:27.565Z,935.60
2018-04-14T05:31:27.532Z,935.59
2018-04-14T05:32:27.463Z,935.57
2018-04-14T05:33:27.435Z,935.58
2018-04-14T05:34:27.368Z,935.56
2018-04-14T05:35:27.543Z,935.53
2018-04-14T05:36:27.287Z,935.54
2018-04-14T05:37:27.252Z,935.51
2018-04-14T05:38:27.185Z,935.52
2018-04-14T05:39:27.146Z,935.52
2018-04-14T05:40:27.094Z,935.50
2018-04-14T05:41:27.267Z,935.49
2018-04-14T05:42:27.041Z,935.44
2018-04-14T05:43:26.973Z,935.44
2018-04-14T05:44:26.950Z,935.45
2018-04-14T05:45:26.888Z,935.48
2018-04-14T05:46:26.837Z,935.49
2018-04-14T05:47:27.023Z,935.49
2018-04-14T05:48:26.776Z,935.44
2018-04-14T05:49:26.708Z,935.45
2018-04-14T05:50:26.685Z,935.42
2018-04-14T05:51:26.646Z,935.44
2018-04-14T05:52:26.592Z,935.41
2018-04-14T05:53:26.751Z,935.43
2018-04-14T05:54:26.484Z,935.40
2018-04-14T05:55:26.445Z,935.35
2018-04-14T05:56:26.425Z,935.37
2018-04-14T05:57:26.387Z,935.34
2018-04-14T05:58:26.307Z,935.35
2018-04-14T05:59:26.477Z,935.36
2018-04-14T06:00:26.233Z,935.32
2018-04-14T06:01:26.185Z,935.32
2018-04-14T06:02:26.152Z,935.33
2018-04-14T06:03:26.103Z,935.33
2018-04-14T06:04:26.069Z,935.26
2018-04-14T06:05:26.213Z,935.29
2018-04-14T06:06:25.982Z,935.25
2018-04-14T06:07:25.921Z,935.21
2018-04-14T06:08:25.893Z,935.21
2018-04-14T06:09:25.832Z,935.20
2018-04-14T06:10:25.795Z,935.17
2018-04-14T06:11:25.952Z,935.14
2018-04-14T06:12:25.719Z,935.13
2018-04-14T06:13:25.649Z,935.13
2018-04-14T06:14:25.668Z,935.12
2018-04-14T06:15:25.582Z,935.11
2018-04-14T06:16:25.535Z,935.12
2018-04-14T06:17:25.698Z,935.16
2018-04-14T06:18:25.476Z,935.17
2018-04-14T06:19:25.408Z,935.19
2018-04-14T06:20:25.351Z,935.13
2018-04-14T06:21:25.324Z,935.14
2018-04-14T06:22:25.263Z,935.12
2018-04-14T06:23:25.425Z,935.11
2018-04-14T06:24:25.192Z,935.07
2018-04-14T06:25:25.148Z,935.05
2018-04-14T06:26:25.093Z,935.03
2018-04-14T06:27:25.031Z,935.04
2018-04-14T06:28:24.992Z,935.05
2018-04-14T06:29:25.166Z,935.04
2018-04-14T06:30:24.953Z,935.00
2018-04-14T06:31:24.884Z,934.94
2018-04-14T06:32:24.814Z,934.93
2018-04-14T06:33:24.784Z,934.92
2018-04-14T06:34:24.772Z,934.87
2018-04-14T06:35:24.889Z,934.90
2018-04-14T06:36:24.672Z,934.93
2018-04-14T06:37:24.622Z,934.93
2018-04-14T06:38:24.562Z,934.94
2018-04-14T06:39:24.531Z,934.98
2018-04-14T06:40:24.473Z,934.99
2018-04-14T06:41:24.644Z,935.01
2018-04-14T06:42:24.406Z,935.03
2018-04-14T06:43:24.356Z,935.05
2018-04-14T06:44:24.299Z,935.02
2018-04-14T06:45:24.257Z,935.01
2018-04-14T06:46:24.236Z,935.01
2018-04-14T06:47:24.365Z,935.05
2018-04-14T06:48:24.139Z,935.01
2018-04-14T06:49:24.092Z,935.04
2018-04-14T06:50:24.022Z,935.02
2018-04-14T06:51:24.007Z,934.99
2018-04-14T06:52:23.955Z,934.98
2018-04-14T06:53:24.116Z,934.98
2018-04-14T06:54:23.852Z,934.98
2018-04-14T06:55:23.815Z,935.07
2018-04-14T06:56:23.783Z,935.07
2018-04-14T06:57:23.756Z,935.06
2018-04-14T06:58:23.691Z,935.04
2018-04-14T06:59:23.832Z,935.02
2018-04-14T07:00:23.607Z,935.01
2018-04-14T07:01:23.550Z,935.02
2018-04-14T07:02:23.507Z,935.05
2018-04-14T07:03:23.488Z,935.05
2018-04-14T07:04:23.509Z,935.04
2018-04-14T07:05:23.568Z,935.10
2018-04-14T07:06:23.317Z,935.03
2018-04-14T07:07:23.319Z,935.03
2018-04-14T07:08:23.279Z,935.04
2018-04-14T07:09:23.211Z,935.01
2018-04-14T07:10:23.156Z,935.07
2018-04-14T07:11:23.303Z,935.10
2018-04-14T07:12:23.064Z,935.12
2018-04-14T07:13:23.007Z,935.11
2018-04-14T07:14:22.991Z,935.17
2018-04-14T07:15:22.936Z,935.06
2018-04-14T07:16:22.917Z,935.07
2018-04-14T07:17:23.061Z,935.12
2018-04-14T07:18:22.784Z,935.12
2018-04-14T07:19:22.770Z,935.09
2018-04-14T07:20:22.695Z,935.10
2018-04-14T07:21:22.661Z,935.07
2018-04-14T07:22:22.620Z,935.05
2018-04-14T07:23:22.783Z,935.07
2018-04-14T07:24:22.549Z,935.04
2018-04-14T07:25:22.486Z,935.11
2018-04-14T07:26:22.461Z,935.15
2018-04-14T07:27:22.404Z,935.16
2018-04-14T07:28:22.363Z,935.16
2018-04-14T07:29:22.544Z,935.24
2018-04-14T07:30:22.286Z,935.29
2018-04-14T07:31:22.229Z,935.28
2018-04-14T07:32:22.254Z,935.27
2018-04-14T07:33:22.146Z,935.26
2018-04-14T07:34:22.096Z,935.24
2018-04-14T07:35:22.253Z,935.26
2018-04-14T07:36:22.025Z,935.18
2018-04-14T07:37:21.974Z,935.20
2018-04-14T07:38:21.902Z,935.19
2018-04-14T07:39:21.861Z,935.29
2018-04-14T07:40:21.826Z,935.29
2018-04-14T07:41:22.013Z,935.35
2018-04-14T07:42:21.742Z,935.37
2018-04-14T07:43:21.726Z,935.40
2018-04-14T07:44:21.641Z,935.44
2018-04-14T07:45:21.621Z,935.45
2018-04-14T07:46:21.580Z,935.47
2018-04-14T07:47:21.716Z,935.44
2018-04-14T07:48:21.463Z,935.47
2018-04-14T07:49:21.433Z,935.45
2018-04-14T07:50:21.376Z,935.44
2018-04-14T07:51:21.373Z,935.44
2018-04-14T07:52:21.316Z,935.47
2018-04-14T07:53:21.462Z,935.44
2018-04-14T07:54:21.212Z,935.51
2018-04-14T07:55:21.158Z,935.53
2018-04-14T07:56:21.112Z,935.56
2018-04-14T07:57:21.079Z,935.58
2018-04-14T07:58:21.042Z,935.62
2018-04-14T07:59:21.194Z,935.54
2018-04-14T08:00:20.961Z,935.62
2018-04-14T08:01:20.901Z,935.60
2018-04-14T08:02:20.868Z,935.58
2018-04-14T08:03:20.816Z,935.61
2018-04-14T08:04:20.798Z,935.63
2018-04-14T08:05:20.948Z,935.64
2018-04-14T08:06:20.710Z,935.64
2018-04-14T08:07:20.682Z,935.63
2018-04-14T08:08:20.608Z,935.62
2018-04-14T08:09:20.549Z,935.62
2018-04-14T08:10:20.502Z,935.62
2018-04-14T08:11:20.659Z,935.61
2018-04-14T08:12:20.426Z,935.63
2018-04-14T08:13:20.401Z,935.61
2018-04-14T08:14:20.338Z,935.60
2018-04-14T08:15:20.287Z,935.62
2018-04-14T08:16:20.243Z,935.71
2018-04-14T08:17:20.425Z,935.67
2018-04-14T08:18:20.169Z,935.65
2018-04-14T08:19:20.092Z,935.67
2018-04-14T08:20:20.075Z,935.66
2018-04-14T08:21:20.036Z,935.67
2018-04-14T08:22:19.992Z,935.66
2018-04-14T08:23:20.132Z,935.66
2018-04-14T08:24:19.878Z,935.74
2018-04-14T08:25:19.857Z,935.73
2018-04-14T08:26:19.812Z,935.75
2018-04-14T08:27:19.772Z,935.75
2018-04-14T08:28:19.712Z,935.79
2018-04-14T08:29:19.863Z,935.81
2018-04-14T08:30:19.653Z,935.81
2018-04-14T08:31:19.593Z,935.78
2018-04-14T08:32:19.544Z,935.82
2018-04-14T08:33:19.507Z,935.80
2018-04-14T08:34:19.462Z,935.85
2018-04-14T08:35:19.617Z,935.86
2018-04-14T08:36:19.359Z,935.84
2018-04-14T08:37:19.391Z,935.85
2018-04-14T08:38:19.277Z,935.87
2018-04-14T08:39:19.242Z,935.84
2018-04-14T08:40:19.183Z,935.90
2018-04-14T08:41:19.531Z,935.89
2018-04-14T08:42:19.107Z,935.88
2018-04-14T08:43:19.078Z,935.87
2018-04-14T08:44:19.024Z,935.87
2018-04-14T08:45:18.962Z,935.88
2018-04-14T08:46:18.917Z,935.87
2018-04-14T08:47:19.158Z,935.95
2018-04-14T08:48:18.866Z,935.92
2018-04-14T08:49:18.792Z,935.96
2018-04-14T08:50:18.738Z,935.97
2018-04-14T08:51:18.693Z,935.99
2018-04-14T08:52:18.678Z,936.00
2018-04-14T08:53:18.818Z,936.04
2018-04-14T08:54:18.562Z,936.05
2018-04-14T08:55:18.528Z,936.07
2018-04-14T08:56:18.477Z,936.10
2018-04-14T08:57:18.441Z,936.11
2018-04-14T08:58:18.387Z,936.08
2018-04-14T08:59:18.548Z,936.10
2018-04-14T09:00:18.303Z,936.15
2018-04-14T09:01:18.266Z,936.20
2018-04-14T09:02:18.195Z,936.22
2018-04-14T09:03:18.166Z,936.26
2018-04-14T09:04:18.119Z,936.26
2018-04-14T09:05:18.314Z,936.25
2018-04-14T09:06:18.055Z,936.22
2018-04-14T09:07:17.999Z,936.26
2018-04-14T09:08:17.937Z,936.24
2018-04-14T09:09:17.897Z,936.25
2018-04-14T09:10:17.867Z,936.25
2018-04-14T09:11:17.998Z,936.23
2018-04-14T09:12:17.781Z,936.24
2018-04-14T09:13:17.712Z,936.22
2018-04-14T09:14:17.679Z,936.25
2018-04-14T09:15:17.628Z,936.23
2018-04-14T09:16:17.588Z,936.23
2018-04-14T09:17:17.774Z,936.24
2018-04-14T09:18:17.502Z,936.24
2018-04-14T09:19:17.458Z,936.28
2018-04-14T09:20:17.422Z,936.28
2018-04-14T09:21:17.385Z,936.33
2018-04-14T09:22:17.353Z,936.30
2018-04-14T09:23:17.483Z,936.34
2018-04-14T09:24:17.239Z,936.32
2018-04-14T09:25:17.225Z,936.34
2018-04-14T09:26:17.175Z,936.34
2018-04-14T09:27:17.107Z,936.35
2018-04-14T09:28:17.083Z,936.32
2018-04-14T09:29:17.239Z,936.27
2018-04-14T09:30:16.973Z,936.36
2018-04-14T09:31:16.929Z,936.38
2018-04-14T09:32:16.878Z,936.37
2018-04-14T09:33:16.832Z,936.41
2018-04-14T09:34:16.833Z,936.42
2018-04-14T09:35:16.965Z,936.43
2018-04-14T09:36:16.724Z,936.39
2018-04-14T09:37:16.682Z,936.46
2018-04-14T09:38:16.642Z,936.46
2018-04-14T09:39:16.577Z,936.45
2018-04-14T09:40:17.035Z,936.48
2018-04-14T09:41:16.682Z,936.50
2018-04-14T09:42:16.457Z,936.54
2018-04-14T09:43:16.421Z,936.52
2018-04-14T09:44:16.393Z,936.61
2018-04-14T09:45:16.313Z,936.62
2018-04-14T09:46:16.274Z,936.60
2018-04-14T09:47:16.444Z,936.66
2018-04-14T09:48:16.164Z,936.66
2018-04-14T09:49:16.148Z,936.66
2018-04-14T09:50:16.080Z,936.67
2018-04-14T09:51:16.057Z,936.70
2018-04-14T09:52:16.018Z,936.70
2018-04-14T09:53:16.145Z,936.67
2018-04-14T09:54:15.933Z,936.66
2018-04-14T09:55:15.859Z,936.63
2018-04-14T09:56:15.833Z,936.67
2018-04-14T09:57:15.796Z,936.66
2018-04-14T09:58:15.726Z,936.64
2018-04-14T09:59:15.898Z,936.64
2018-04-14T10:00:15.647Z,936.65
2018-04-14T10:01:15.605Z,936.66
2018-04-14T10:02:15.581Z,936.66
2018-04-14T10:03:15.503Z,936.71
2018-04-14T10:04:15.481Z,936.72
2018-04-14T10:05:15.644Z,936.73
2018-04-14T10:06:15.388Z,936.70
2018-04-14T10:07:15.344Z,936.75
2018-04-14T10:08:15.315Z,936.69
2018-04-14T10:09:15.257Z,936.67
2018-04-14T10:10:15.199Z,936.68
2018-04-14T10:11:15.371Z,936.78
2018-04-14T10:12:15.138Z,936.85
2018-04-14T10:13:15.096Z,936.84
2018-04-14T10:14:15.022Z,936.81
2018-04-14T10:15:14.991Z,936.88
2018-04-14T10:16:14.988Z,936.90
2018-04-14T10:17:15.113Z,936.86
2018-04-14T10:18:14.863Z,936.85
2018-04-14T10:19:14.830Z,936.84
2018-04-14T10:20:14.801Z,936.85
2018-04-14T10:21:14.741Z,936.92
2018-04-14T10:22:14.689Z,937.07
2018-04-14T10:23:14.857Z,937.41
2018-04-14T10:24:14.587Z,937.67
2018-04-14T10:25:14.564Z,937.78
2018-04-14T10:26:14.517Z,937.72
2018-04-14T10:27:14.475Z,937.78
2018-04-14T10:28:14.449Z,937.89
2018-04-14T10:29:14.605Z,937.90
2018-04-14T10:30:14.363Z,937.95
2018-04-14T10:31:14.340Z,937.99
2018-04-14T10:32:14.276Z,938.01
2018-04-14T10:33:14.222Z,937.59
2018-04-14T10:34:14.217Z,937.59
2018-04-14T10:35:14.346Z,937.44
2018-04-14T10:36:14.128Z,937.42
2018-04-14T10:37:14.105Z,938.05
2018-04-14T10:38:14.041Z,938.00
2018-04-14T10:39:13.995Z,938.26
2018-04-14T10:40:13.972Z,938.41
2018-04-14T10:41:14.119Z,938.41
2018-04-14T10:42:13.892Z,938.47
2018-04-14T10:43:13.862Z,938.46
2018-04-14T10:44:13.821Z,938.35
2018-04-14T10:45:13.773Z,938.05
2018-04-14T10:46:13.741Z,938.25
2018-04-14T10:47:13.912Z,938.47
2018-04-14T10:48:13.661Z,938.46
2018-04-14T10:49:13.628Z,938.45
2018-04-14T10:50:13.594Z,938.49
2018-04-14T10:51:13.556Z,938.52
2018-04-14T10:52:13.509Z,937.89
2018-04-14T10:53:14.248Z,937.83
2018-04-14T10:54:13.457Z,937.35
2018-04-14T10:55:13.408Z,937.39
2018-04-14T10:56:13.394Z,937.40
2018-04-14T10:57:13.359Z,937.46
2018-04-14T10:58:13.297Z,938.19
2018-04-14T10:59:13.466Z,938.21
2018-04-14T11:00:13.237Z,937.65
2018-04-14T11:01:13.191Z,937.54
2018-04-14T11:02:13.150Z,937.52
2018-04-14T11:03:13.132Z,937.40
2018-04-14T11:04:13.059Z,937.41
2018-04-14T11:05:13.241Z,937.42
2018-04-14T11:06:13.005Z,937.46
2018-04-14T11:07:12.953Z,937.42
2018-04-14T11:08:12.912Z,937.42
2018-04-14T11:09:12.885Z,937.42
2018-04-14T11:10:12.825Z,937.44
2018-04-14T11:11:13.002Z,937.43
2018-04-14T11:12:12.751Z,937.40
2018-04-14T11:13:12.708Z,937.44
2018-04-14T11:14:12.670Z,937.45
2018-04-14T11:15:12.657Z,937.42
2018-04-14T11:16:12.599Z,937.43
2018-04-14T11:17:12.750Z,937.45
2018-04-14T11:18:12.502Z,937.50
2018-04-14T11:19:12.477Z,937.52
2018-04-14T11:20:12.424Z,937.53
2018-04-14T11:21:12.392Z,937.60
2018-04-14T11:22:12.331Z,937.62
2018-04-14T11:23:12.496Z,937.59
2018-04-14T11:24:12.240Z,937.59
2018-04-14T11:25:12.200Z,937.59
2018-04-14T11:26:12.178Z,937.59
2018-04-14T11:27:12.124Z,937.61
2018-04-14T11:28:12.071Z,937.61
2018-04-14T11:29:12.271Z,937.59
2018-04-14T11:30:12.029Z,937.63
2018-04-14T11:31:12.029Z,937.61
2018-04-14T11:32:11.911Z,937.66
2018-04-14T11:33:11.875Z,937.71
2018-04-14T11:34:11.841Z,937.71
2018-04-14T11:35:12.002Z,937.70
2018-04-14T11:36:11.752Z,937.73
2018-04-14T11:37:11.714Z,937.72
2018-04-14T11:38:11.663Z,937.70
2018-04-14T11:39:11.614Z,937.69
2018-04-14T11:40:11.603Z,937.65
2018-04-14T11:41:11.747Z,937.69
2018-04-14T11:42:11.506Z,937.62
2018-04-14T11:43:11.467Z,937.61
2018-04-14T11:44:11.414Z,937.60
2018-04-14T11:45:11.384Z,937.64
2018-04-14T11:46:11.338Z,937.65
2018-04-14T11:47:11.496Z,937.70
2018-04-14T11:48:11.243Z,937.65
2018-04-14T11:49:11.210Z,937.70
2018-04-14T11:50:11.154Z,937.69
2018-04-14T11:51:11.139Z,937.71
2018-04-14T11:52:11.092Z,937.76
2018-04-14T11:53:11.229Z,937.68
2018-04-14T11:54:11.012Z,937.75
2018-04-14T11:55:10.978Z,937.70
2018-04-14T11:56:10.917Z,937.71
2018-04-14T11:57:10.876Z,937.66
2018-04-14T11:58:10.834Z,937.69
2018-04-14T11:59:11.009Z,937.73
2018-04-14T12:00:10.763Z,937.70
2018-04-14T12:01:10.700Z,937.69
2018-04-14T12:02:10.697Z,937.72
2018-04-14T12:03:10.617Z,937.68
2018-04-14T12:04:10.584Z,937.67
2018-04-14T12:05:10.755Z,937.67
2018-04-14T12:06:10.525Z,937.69
2018-04-14T12:07:10.481Z,937.64
2018-04-14T12:08:10.432Z,937.74
2018-04-14T12:09:10.391Z,937.69
2018-04-14T12:10:10.569Z,937.74
2018-04-14T12:11:10.287Z,937.73
2018-04-14T12:12:10.260Z,937.82
2018-04-14T12:13:10.198Z,937.85
2018-04-14T12:14:10.178Z,937.89
2018-04-14T12:15:10.123Z,937.83
2018-04-14T12:16:10.271Z,937.84
2018-04-14T12:17:10.030Z,937.82
2018-04-14T12:18:10.001Z,937.80
2018-04-14T12:19:09.951Z,937.92
2018-04-14T12:20:09.919Z,937.85
2018-04-14T12:21:09.871Z,937.87
2018-04-14T12:22:10.017Z,937.86
2018-04-14T12:23:09.805Z,937.88
2018-04-14T12:24:09.739Z,937.86
2018-04-14T12:25:09.701Z,937.83
2018-04-14T12:26:09.659Z,937.82
2018-04-14T12:27:09.628Z,937.79
2018-04-14T12:28:09.786Z,937.84